Time;durP1;ratioP1;P1;durP2;ratioP2;P2;SDS_P1;SDS_P2;PMS_P1;PMS_P2;Temp;Humidity;BMP_temperature;BMP_pressure;BME280_temperature;BME280_humidity;BME280_pressure;Samples;Min_cycle;Max_cycle;Signal;HPM_P1;HPM_P2
2022/06/30 00:00:29;;;;;;;3.08;1.13;;;22.80;99.90;;;;;;5007434;28;20129;-47
2022/06/30 00:02:55;;;;;;;2.67;0.95;;;22.80;99.90;;;;;;5022828;28;20120;-45
2022/06/30 00:05:21;;;;;;;2.55;1.00;;;22.80;99.90;;;;;;5027377;28;20041;-45
2022/06/30 00:07:47;;;;;;;2.28;0.90;;;22.70;99.90;;;;;;5026602;28;20076;-45
2022/06/30 00:10:13;;;;;;;1.83;0.80;;;22.70;99.90;;;;;;5029745;28;20482;-45
2022/06/30 00:12:39;;;;;;;1.50;0.80;;;22.70;99.90;;;;;;5024790;28;20056;-47
2022/06/30 00:15:06;;;;;;;1.08;0.70;;;22.60;99.90;;;;;;5028137;28;20045;-45
2022/06/30 00:17:31;;;;;;;2.63;1.08;;;22.60;99.90;;;;;;5027956;28;20037;-45
2022/06/30 00:19:57;;;;;;;1.92;1.00;;;22.60;99.90;;;;;;5025406;28;20566;-48
2022/06/30 00:22:23;;;;;;;2.97;1.00;;;22.60;99.90;;;;;;5028755;28;20092;-46
2022/06/30 00:24:48;;;;;;;1.20;0.80;;;22.50;99.90;;;;;;5028668;28;20041;-45
2022/06/30 00:27:14;;;;;;;2.85;0.73;;;22.50;99.90;;;;;;5025598;28;20487;-45
2022/06/30 00:29:40;;;;;;;2.42;0.88;;;22.50;99.90;;;;;;5027143;28;20470;-45
2022/06/30 00:32:06;;;;;;;1.10;0.73;;;22.50;99.90;;;;;;5029075;28;20045;-47
2022/06/30 00:34:31;;;;;;;2.92;0.77;;;22.50;99.90;;;;;;5027518;28;20554;-45
2022/06/30 00:36:57;;;;;;;2.63;0.80;;;22.50;99.90;;;;;;5029539;28;20070;-45
2022/06/30 00:39:23;;;;;;;3.45;1.05;;;22.50;99.90;;;;;;5030293;28;20048;-45
2022/06/30 00:41:48;;;;;;;3.40;1.02;;;22.50;99.90;;;;;;5028274;28;20045;-49
2022/06/30 00:44:14;;;;;;;1.13;0.90;;;22.40;99.90;;;;;;5025711;28;20033;-48
2022/06/30 00:46:40;;;;;;;1.77;1.08;;;22.40;99.90;;;;;;5036697;28;20040;-46
2022/06/30 00:49:09;;;;;;;2.70;1.30;;;22.40;99.90;;;;;;5026900;28;20040;-46
2022/06/30 00:51:36;;;;;;;3.05;1.40;;;22.40;99.90;;;;;;5026708;28;20561;-45
2022/06/30 00:54:03;;;;;;;2.30;1.25;;;22.40;99.90;;;;;;5030210;28;20033;-47
2022/06/30 00:56:30;;;;;;;3.03;1.15;;;22.40;99.90;;;;;;5023749;28;20107;-46
2022/06/30 00:59:00;;;;;;;2.72;0.90;;;22.40;99.90;;;;;;5024756;28;20048;-45
2022/06/30 01:01:26;;;;;;;1.58;0.80;;;22.30;99.90;;;;;;5025423;28;20095;-46
2022/06/30 01:03:55;;;;;;;1.17;1.00;;;22.30;99.90;;;;;;5025224;28;20170;-46
2022/06/30 01:06:22;;;;;;;2.67;0.85;;;22.30;99.90;;;;;;5026573;28;20083;-45
2022/06/30 01:08:49;;;;;;;2.38;0.95;;;22.30;99.90;;;;;;5009340;28;20045;-44
2022/06/30 01:14:00;;;;;;;1.70;0.93;;;22.20;99.90;;;;;;5023653;28;20500;-45
2022/06/30 01:16:26;;;;;;;1.40;0.77;;;22.20;99.90;;;;;;5027209;28;20049;-46
2022/06/30 01:18:52;;;;;;;3.30;0.80;;;22.20;99.90;;;;;;5025887;28;20396;-46
2022/06/30 01:21:18;;;;;;;3.47;1.13;;;22.10;99.90;;;;;;5024704;28;20041;-45
2022/06/30 01:23:44;;;;;;;1.83;1.00;;;22.10;99.90;;;;;;5026447;28;20037;-47
2022/06/30 01:26:10;;;;;;;3.85;0.90;;;22.10;99.90;;;;;;5029053;28;20564;-46
2022/06/30 01:28:36;;;;;;;3.05;1.00;;;22.10;99.90;;;;;;5028474;28;20399;-47
2022/06/30 01:31:02;;;;;;;1.45;1.02;;;22.00;99.90;;;;;;5009881;28;20048;-46
2022/06/30 01:33:27;;;;;;;2.00;1.20;;;22.00;99.90;;;;;;5029699;28;20088;-46
2022/06/30 01:35:56;;;;;;;2.38;1.13;;;22.00;99.90;;;;;;5026004;28;20502;-44
2022/06/30 01:38:23;;;;;;;2.78;0.98;;;22.00;99.90;;;;;;5027231;28;20036;-45
2022/06/30 01:40:49;;;;;;;2.85;0.98;;;22.00;99.90;;;;;;5028604;28;20026;-46
2022/06/30 01:43:15;;;;;;;3.88;0.88;;;22.00;99.90;;;;;;5021792;28;20057;-47
2022/06/30 01:45:41;;;;;;;2.63;0.85;;;21.90;99.90;;;;;;5022630;28;20121;-45
2022/06/30 01:48:08;;;;;;;3.05;0.80;;;21.90;99.90;;;;;;5023068;28;20045;-46
2022/06/30 01:50:34;;;;;;;1.88;0.90;;;21.90;99.90;;;;;;5026038;28;20048;-45
2022/06/30 01:53:01;;;;;;;2.55;0.70;;;21.90;99.90;;;;;;5021493;28;20484;-45
2022/06/30 01:55:28;;;;;;;3.05;0.88;;;21.80;99.90;;;;;;5021374;28;20450;-48
2022/06/30 01:57:55;;;;;;;2.50;0.60;;;21.80;99.90;;;;;;5027966;28;20617;-45
2022/06/30 02:00:25;;;;;;;1.95;0.80;;;21.80;99.90;;;;;;5026531;28;20099;-47
2022/06/30 02:02:53;;;;;;;3.22;0.75;;;21.70;99.90;;;;;;5030235;28;20045;-47
2022/06/30 02:05:20;;;;;;;2.50;0.90;;;21.70;99.90;;;;;;5028227;28;20045;-46
2022/06/30 02:07:45;;;;;;;1.20;0.60;;;21.70;99.90;;;;;;5028375;28;20259;-45
2022/06/30 02:10:15;;;;;;;2.35;0.70;;;21.60;99.90;;;;;;5031117;28;20041;-45
2022/06/30 02:12:47;;;;;;;1.60;0.77;;;21.60;99.90;;;;;;5031024;28;20380;-45
2022/06/30 02:15:32;;;;;;;1.70;0.70;;;21.60;99.90;;;;;;5030933;28;20538;-45
2022/06/30 02:17:58;;;;;;;1.63;0.65;;;21.60;99.90;;;;;;5024411;28;20043;-45
2022/06/30 02:20:24;;;;;;;2.67;0.80;;;21.50;99.90;;;;;;5032769;28;20041;-44
2022/06/30 02:22:52;;;;;;;3.50;0.80;;;21.50;99.90;;;;;;5012917;28;20096;-44
2022/06/30 02:25:18;;;;;;;3.72;1.10;;;21.50;99.90;;;;;;5038327;28;20049;-45
2022/06/30 02:27:44;;;;;;;1.92;0.90;;;21.50;99.90;;;;;;5027950;28;20037;-45
2022/06/30 02:30:10;;;;;;;3.17;1.00;;;21.40;99.90;;;;;;5027388;28;20123;-45
2022/06/30 02:32:36;;;;;;;4.47;1.10;;;21.40;99.90;;;;;;5028281;28;20442;-44
2022/06/30 02:35:03;;;;;;;4.18;1.17;;;21.40;99.90;;;;;;5028368;28;20041;-45
2022/06/30 02:37:28;;;;;;;2.97;1.20;;;21.40;99.90;;;;;;5041760;28;20045;-48
2022/06/30 02:39:54;;;;;;;2.17;0.88;;;21.30;99.90;;;;;;5026785;28;20048;-47
2022/06/30 02:42:20;;;;;;;2.35;1.40;;;21.30;99.90;;;;;;5028071;28;20668;-45
2022/06/30 02:44:46;;;;;;;3.00;1.25;;;21.30;99.90;;;;;;5027226;28;20064;-45
2022/06/30 02:47:12;;;;;;;3.53;1.17;;;21.30;99.90;;;;;;5024446;28;20040;-46
2022/06/30 02:49:39;;;;;;;4.40;1.20;;;21.20;99.90;;;;;;5028849;28;20053;-45
2022/06/30 02:52:06;;;;;;;4.03;1.05;;;21.20;99.90;;;;;;5025998;28;20144;-47
2022/06/30 02:54:32;;;;;;;3.10;1.10;;;21.20;99.90;;;;;;5025678;28;20037;-46
2022/06/30 02:56:58;;;;;;;2.40;1.10;;;21.20;99.90;;;;;;5028765;28;20531;-48
2022/06/30 02:59:24;;;;;;;2.05;1.00;;;21.20;99.90;;;;;;5026157;28;20508;-45
2022/06/30 03:01:50;;;;;;;2.30;0.80;;;21.10;99.90;;;;;;5030140;28;20040;-45
2022/06/30 03:04:15;;;;;;;1.98;1.08;;;21.10;99.90;;;;;;5023864;28;20045;-45
2022/06/30 03:06:41;;;;;;;3.40;0.95;;;21.10;99.90;;;;;;5025515;28;20109;-44
2022/06/30 03:09:07;;;;;;;3.25;1.08;;;21.00;99.90;;;;;;5027426;28;20044;-45
2022/06/30 03:11:33;;;;;;;1.70;0.70;;;21.00;99.90;;;;;;5026244;28;20496;-47
2022/06/30 03:13:59;;;;;;;1.58;0.70;;;21.00;99.90;;;;;;5027423;28;20041;-47
2022/06/30 03:16:24;;;;;;;3.83;0.80;;;21.00;99.90;;;;;;5026100;28;20044;-45
2022/06/30 03:18:52;;;;;;;2.15;0.73;;;21.00;99.90;;;;;;5032535;28;20479;-46
2022/06/30 03:21:19;;;;;;;1.58;0.80;;;20.90;99.90;;;;;;5030558;28;20052;-46
2022/06/30 03:23:46;;;;;;;2.97;0.85;;;20.90;99.90;;;;;;5028922;28;20091;-45
2022/06/30 03:26:13;;;;;;;3.42;0.80;;;20.90;99.90;;;;;;5029696;28;20060;-46
2022/06/30 03:28:39;;;;;;;3.67;0.82;;;20.90;99.90;;;;;;5029706;28;20464;-45
2022/06/30 03:31:05;;;;;;;2.95;0.93;;;20.90;99.90;;;;;;5025212;28;20077;-47
2022/06/30 03:33:31;;;;;;;2.03;0.63;;;20.90;99.90;;;;;;5026281;28;20440;-45
2022/06/30 03:35:57;;;;;;;2.58;0.88;;;20.90;99.90;;;;;;5028739;28;20036;-45
2022/06/30 03:38:23;;;;;;;1.20;0.63;;;20.80;99.90;;;;;;5026339;28;20064;-46
2022/06/30 03:40:49;;;;;;;1.77;0.63;;;20.80;99.90;;;;;;5026723;28;20434;-48
2022/06/30 03:43:16;;;;;;;2.03;0.70;;;20.80;99.90;;;;;;5028099;28;20475;-45
2022/06/30 03:45:42;;;;;;;1.42;0.70;;;20.80;99.90;;;;;;5028830;28;20136;-46
2022/06/30 03:48:07;;;;;;;3.22;0.63;;;20.80;99.90;;;;;;5027792;28;20322;-45
2022/06/30 03:50:34;;;;;;;3.47;0.75;;;20.70;99.90;;;;;;5031594;28;20055;-46
2022/06/30 03:53:01;;;;;;;1.70;0.80;;;20.70;99.90;;;;;;5026690;28;20045;-45
2022/06/30 03:55:27;;;;;;;1.60;0.57;;;20.70;99.90;;;;;;5026511;28;20455;-45
2022/06/30 03:57:54;;;;;;;3.20;0.85;;;20.70;99.90;;;;;;5019806;28;20041;-45
2022/06/30 04:00:20;;;;;;;4.57;0.70;;;20.70;99.90;;;;;;5030214;28;20055;-48
2022/06/30 04:02:46;;;;;;;2.15;0.70;;;20.70;99.90;;;;;;5026133;28;20055;-45
2022/06/30 04:05:12;;;;;;;2.90;0.73;;;20.70;99.90;;;;;;5031145;28;20116;-44
2022/06/30 04:07:40;;;;;;;2.90;0.60;;;20.70;99.90;;;;;;5027719;28;20029;-44
2022/06/30 04:10:06;;;;;;;1.00;0.50;;;20.70;99.90;;;;;;5028832;28;20483;-43
2022/06/30 04:12:32;;;;;;;1.73;0.68;;;20.60;99.90;;;;;;5012816;28;20045;-44
2022/06/30 04:14:58;;;;;;;2.80;0.80;;;20.60;99.90;;;;;;5024263;28;20040;-48
2022/06/30 04:17:23;;;;;;;3.45;0.68;;;20.60;99.90;;;;;;5026396;28;20056;-44
2022/06/30 04:19:49;;;;;;;1.30;0.60;;;20.60;99.90;;;;;;5034295;28;20037;-47
2022/06/30 04:22:15;;;;;;;2.03;0.60;;;20.60;99.90;;;;;;5039155;28;20402;-44
2022/06/30 04:24:40;;;;;;;1.55;0.52;;;20.60;99.90;;;;;;5034005;28;20520;-46
2022/06/30 04:27:06;;;;;;;1.95;0.60;;;20.60;99.90;;;;;;5040790;28;20040;-46
2022/06/30 04:29:32;;;;;;;1.38;0.70;;;20.60;99.90;;;;;;5036392;28;20045;-45
2022/06/30 04:34:42;;;;;;;3.83;1.05;;;20.60;99.90;;;;;;5034876;28;20111;-44
2022/06/30 04:37:07;;;;;;;2.90;0.65;;;20.60;99.90;;;;;;5039181;28;20048;-45
2022/06/30 04:39:33;;;;;;;1.20;0.55;;;20.60;99.90;;;;;;5040646;28;20037;-46
2022/06/30 04:41:59;;;;;;;2.58;0.75;;;20.60;99.90;;;;;;5034602;28;20029;-46
2022/06/30 04:44:24;;;;;;;2.78;0.80;;;20.60;99.90;;;;;;5034324;28;20041;-45
2022/06/30 04:46:50;;;;;;;1.58;0.73;;;20.60;99.90;;;;;;5036224;28;20045;-44
2022/06/30 04:49:15;;;;;;;4.53;1.00;;;20.60;99.90;;;;;;5036195;28;20395;-45
2022/06/30 04:51:41;;;;;;;3.15;0.75;;;20.60;99.90;;;;;;5036076;28;20450;-44
2022/06/30 04:54:07;;;;;;;1.90;0.80;;;20.60;99.90;;;;;;5037988;28;20091;-45
2022/06/30 04:56:33;;;;;;;2.45;0.70;;;20.60;99.90;;;;;;5034889;28;20045;-44
2022/06/30 04:58:58;;;;;;;2.80;1.05;;;20.60;99.90;;;;;;5038346;28;20491;-47
2022/06/30 05:01:25;;;;;;;1.45;0.77;;;20.60;99.90;;;;;;5035783;28;20037;-43
2022/06/30 05:03:50;;;;;;;1.80;0.90;;;20.60;99.90;;;;;;5034889;28;20136;-46
2022/06/30 05:06:16;;;;;;;1.92;0.80;;;20.60;99.90;;;;;;5035253;28;20148;-44
2022/06/30 05:08:42;;;;;;;2.38;0.95;;;20.60;99.90;;;;;;5036317;28;20049;-46
2022/06/30 05:11:08;;;;;;;3.10;0.73;;;20.60;99.90;;;;;;5036977;28;20060;-46
2022/06/30 05:13:34;;;;;;;2.33;0.77;;;20.60;99.90;;;;;;5033514;28;20503;-44
2022/06/30 05:16:00;;;;;;;1.20;0.73;;;20.60;99.90;;;;;;5036524;28;20041;-43
2022/06/30 05:18:27;;;;;;;2.40;0.70;;;20.60;99.90;;;;;;5031377;28;20038;-43
2022/06/30 05:20:53;;;;;;;2.13;0.70;;;20.60;99.90;;;;;;5034028;28;20095;-47
2022/06/30 05:23:19;;;;;;;3.42;0.70;;;20.60;99.90;;;;;;5035208;28;20037;-44
2022/06/30 05:28:29;;;;;;;1.33;0.68;;;20.90;99.90;;;;;;5039246;28;20390;-44
2022/06/30 05:30:56;;;;;;;2.60;0.90;;;21.40;99.90;;;;;;5039140;28;20037;-47
2022/06/30 05:33:22;;;;;;;2.00;0.80;;;22.00;99.90;;;;;;5032043;28;20051;-44
2022/06/30 05:35:49;;;;;;;3.67;0.80;;;22.50;99.90;;;;;;5036784;28;20549;-47
2022/06/30 05:38:16;;;;;;;1.77;0.82;;;22.60;99.90;;;;;;5033027;28;20073;-44
2022/06/30 05:40:42;;;;;;;1.85;0.60;;;22.50;99.90;;;;;;5034226;28;20152;-44
2022/06/30 05:43:12;;;;;;;2.15;0.85;;;22.50;99.90;;;;;;5032540;28;20048;-48
2022/06/30 05:45:38;;;;;;;1.75;0.60;;;22.50;99.90;;;;;;5034227;28;20045;-44
2022/06/30 05:48:04;;;;;;;2.08;0.73;;;22.60;99.90;;;;;;5035617;28;20045;-46
2022/06/30 05:50:30;;;;;;;2.72;0.70;;;22.60;99.90;;;;;;5035162;28;20107;-46
2022/06/30 05:52:57;;;;;;;3.22;0.60;;;22.60;99.90;;;;;;5032357;28;20057;-45
2022/06/30 05:55:23;;;;;;;1.83;0.55;;;22.60;99.90;;;;;;5035012;28;20463;-46
2022/06/30 05:57:57;;;;;;;2.80;1.00;;;22.50;99.90;;;;;;5037731;28;20084;-45
2022/06/30 06:00:25;;;;;;;3.00;0.80;;;22.50;99.90;;;;;;5045764;28;20041;-43
2022/06/30 06:02:51;;;;;;;2.45;0.70;;;22.40;99.90;;;;;;5035308;28;20120;-45
2022/06/30 06:05:17;;;;;;;3.75;0.80;;;22.30;99.90;;;;;;5038186;28;20105;-44
2022/06/30 06:07:43;;;;;;;2.13;0.85;;;22.30;99.90;;;;;;5038185;28;20033;-44
2022/06/30 06:10:10;;;;;;;3.75;0.90;;;22.20;99.90;;;;;;5034703;28;20068;-44
2022/06/30 06:12:36;;;;;;;6.20;1.15;;;22.20;99.90;;;;;;5034456;28;20037;-43
2022/06/30 06:15:03;;;;;;;3.30;0.80;;;22.10;99.90;;;;;;5039485;28;20032;-43
2022/06/30 06:17:30;;;;;;;3.03;0.63;;;22.10;99.90;;;;;;5036305;28;20443;-46
2022/06/30 06:19:56;;;;;;;2.08;0.77;;;22.10;99.90;;;;;;5036420;28;20487;-47
2022/06/30 06:22:22;;;;;;;3.92;0.90;;;22.10;99.90;;;;;;5031641;28;20133;-43
2022/06/30 06:24:47;;;;;;;3.95;0.90;;;22.10;99.90;;;;;;5035043;28;20538;-44
2022/06/30 06:27:13;;;;;;;6.22;1.00;;;22.10;99.90;;;;;;5034018;28;20073;-45
2022/06/30 06:29:39;;;;;;;2.40;0.70;;;22.10;99.90;;;;;;5034769;28;20041;-44
2022/06/30 06:32:05;;;;;;;2.15;0.80;;;22.10;99.90;;;;;;5037371;28;20033;-44
2022/06/30 06:34:30;;;;;;;2.88;1.02;;;22.20;99.90;;;;;;5035090;28;20045;-44
2022/06/30 06:36:56;;;;;;;5.05;0.98;;;22.20;99.90;;;;;;5037652;28;20056;-46
2022/06/30 06:39:22;;;;;;;5.53;1.00;;;22.30;99.90;;;;;;5034228;28;20041;-44
2022/06/30 06:41:47;;;;;;;4.18;1.20;;;22.30;99.90;;;;;;5036955;28;20045;-44
2022/06/30 06:44:13;;;;;;;3.75;1.08;;;22.30;99.90;;;;;;5033218;28;20033;-47
2022/06/30 06:46:39;;;;;;;3.85;0.90;;;22.40;99.90;;;;;;5037176;28;20059;-46
2022/06/30 06:49:09;;;;;;;2.95;1.00;;;22.40;99.90;;;;;;5042211;28;20071;-45
2022/06/30 06:51:35;;;;;;;6.38;0.80;;;22.50;99.90;;;;;;5039443;28;20132;-44
2022/06/30 06:54:02;;;;;;;4.25;0.82;;;22.50;99.90;;;;;;5038855;28;20036;-45
2022/06/30 06:56:28;;;;;;;1.67;0.65;;;22.60;99.90;;;;;;5037750;28;20049;-46
2022/06/30 06:58:54;;;;;;;4.43;0.88;;;22.60;99.90;;;;;;5042337;28;20075;-45
2022/06/30 07:01:20;;;;;;;2.80;1.00;;;22.70;99.90;;;;;;5038880;28;20480;-46
2022/06/30 07:03:46;;;;;;;5.15;0.75;;;22.80;99.90;;;;;;5036890;28;20041;-45
2022/06/30 07:06:11;;;;;;;1.73;0.70;;;22.80;99.90;;;;;;5036306;28;20059;-45
2022/06/30 07:08:37;;;;;;;2.17;0.80;;;22.90;99.90;;;;;;5038644;28;20037;-44
2022/06/30 07:11:03;;;;;;;3.17;0.82;;;22.90;99.90;;;;;;5035499;28;20052;-45
2022/06/30 07:13:31;;;;;;;3.45;0.90;;;23.00;99.90;;;;;;5035271;28;20106;-43
2022/06/30 07:15:56;;;;;;;2.58;1.00;;;23.00;99.90;;;;;;5040377;28;20073;-43
2022/06/30 07:18:22;;;;;;;3.40;0.88;;;23.10;99.90;;;;;;5039859;28;20116;-45
2022/06/30 07:20:49;;;;;;;2.08;0.80;;;23.20;99.90;;;;;;5040671;28;20112;-46
2022/06/30 07:23:14;;;;;;;3.03;0.82;;;23.20;99.90;;;;;;5036464;28;20041;-44
2022/06/30 07:25:41;;;;;;;4.35;0.80;;;23.30;99.90;;;;;;5039349;28;20438;-44
2022/06/30 07:28:08;;;;;;;4.05;0.93;;;23.30;99.90;;;;;;5037030;28;20507;-43
2022/06/30 07:30:33;;;;;;;3.25;1.10;;;23.40;99.90;;;;;;5038169;28;20052;-43
2022/06/30 07:32:59;;;;;;;3.78;1.20;;;23.40;99.90;;;;;;5021549;28;20041;-46
2022/06/30 07:35:25;;;;;;;4.03;1.10;;;23.50;99.90;;;;;;5033040;28;20048;-44
2022/06/30 07:37:51;;;;;;;4.07;1.10;;;23.50;99.90;;;;;;5036136;28;20037;-43
2022/06/30 07:40:16;;;;;;;2.85;1.05;;;23.60;99.90;;;;;;5036361;28;20045;-44
2022/06/30 07:42:42;;;;;;;2.70;1.20;;;23.60;99.90;;;;;;5036742;28;20068;-45
2022/06/30 07:45:10;;;;;;;2.25;0.90;;;23.70;99.90;;;;;;5037317;28;20045;-43
2022/06/30 07:47:39;;;;;;;3.85;1.35;;;23.80;99.90;;;;;;5035412;28;20059;-43
2022/06/30 07:50:06;;;;;;;6.50;1.13;;;23.90;99.90;;;;;;5033194;28;20039;-46
2022/06/30 07:52:33;;;;;;;3.35;1.02;;;23.90;99.90;;;;;;5025141;28;20280;-46
2022/06/30 07:54:59;;;;;;;1.80;1.17;;;24.00;99.90;;;;;;5028179;28;20037;-49
2022/06/30 07:57:27;;;;;;;3.22;1.17;;;24.10;99.90;;;;;;5025407;28;20048;-47
2022/06/30 07:59:53;;;;;;;2.42;1.20;;;24.20;99.90;;;;;;5024568;28;20057;-47
2022/06/30 08:02:19;;;;;;;4.43;1.10;;;24.30;99.90;;;;;;5037431;28;20586;-47
2022/06/30 08:04:45;;;;;;;3.80;1.50;;;24.40;99.90;;;;;;5025674;28;20034;-44
2022/06/30 08:07:11;;;;;;;3.42;1.90;;;24.40;99.90;;;;;;5027610;28;20483;-43
2022/06/30 08:09:36;;;;;;;3.80;1.55;;;24.50;99.90;;;;;;5030309;28;20041;-47
2022/06/30 08:12:03;;;;;;;5.43;2.03;;;24.60;99.90;;;;;;5026746;28;20071;-45
2022/06/30 08:14:29;;;;;;;2.95;1.48;;;24.60;99.90;;;;;;5026859;28;20921;-43
2022/06/30 08:16:55;;;;;;;2.80;1.77;;;24.70;99.90;;;;;;5028256;28;20029;-44
2022/06/30 08:19:21;;;;;;;4.50;2.08;;;24.70;99.90;;;;;;5032661;28;20052;-44
2022/06/30 08:21:47;;;;;;;4.10;1.88;;;24.80;99.90;;;;;;5038587;28;21451;-43
2022/06/30 08:24:13;;;;;;;5.20;1.80;;;24.80;99.90;;;;;;5032864;28;20434;-42
2022/06/30 08:26:38;;;;;;;5.35;1.77;;;24.90;99.90;;;;;;5037693;28;20037;-45
2022/06/30 08:29:04;;;;;;;3.92;1.90;;;24.90;99.90;;;;;;5035611;28;20155;-42
2022/06/30 08:31:31;;;;;;;3.97;1.92;;;25.00;99.90;;;;;;5029455;28;20045;-45
2022/06/30 08:33:56;;;;;;;2.55;2.13;;;25.00;99.90;;;;;;5024115;28;20819;-44
2022/06/30 08:36:22;;;;;;;3.55;1.92;;;25.10;99.90;;;;;;5007802;28;20451;-44
2022/06/30 08:38:48;;;;;;;2.67;1.77;;;25.20;99.90;;;;;;5025576;28;20450;-43
2022/06/30 08:44:00;;;;;;;3.38;2.03;;;25.30;99.90;;;;;;5026001;28;20057;-45
2022/06/30 08:46:38;;;;;;;4.00;1.67;;;25.30;99.90;;;;;;5023939;28;20829;-47
2022/06/30 08:49:05;;;;;;;2.15;1.98;;;25.40;99.90;;;;;;5025202;28;20045;-43
2022/06/30 08:51:35;;;;;;;2.05;1.85;;;25.50;99.90;;;;;;5006333;28;20061;-43
2022/06/30 08:54:02;;;;;;;5.05;2.40;;;25.50;99.90;;;;;;5035322;28;20069;-44
2022/06/30 08:56:30;;;;;;;3.30;2.30;;;25.60;99.90;;;;;;5025781;28;20599;-44
2022/06/30 08:58:57;;;;;;;4.05;2.55;;;25.70;99.90;;;;;;5026131;28;20415;-42
2022/06/30 09:01:25;;;;;;;4.57;3.00;;;25.70;99.90;;;;;;5010010;28;20095;-46
2022/06/30 09:03:51;;;;;;;5.22;2.45;;;25.80;99.90;;;;;;5019369;28;20041;-44
2022/06/30 09:06:17;;;;;;;4.68;2.63;;;25.80;99.90;;;;;;5024063;28;20049;-44
2022/06/30 09:08:42;;;;;;;5.80;3.30;;;25.90;99.90;;;;;;5024285;28;20045;-42
2022/06/30 09:11:08;;;;;;;3.40;3.10;;;26.00;99.90;;;;;;5024206;28;20037;-45
2022/06/30 09:13:45;;;;;;;4.43;3.25;;;26.00;99.90;;;;;;5029304;28;20920;-45
2022/06/30 09:16:12;;;;;;;4.82;3.30;;;26.10;99.90;;;;;;5027272;28;20049;-43
2022/06/30 09:18:38;;;;;;;3.60;3.30;;;26.20;99.90;;;;;;5023954;28;20038;-43
2022/06/30 09:21:22;;;;;;;4.25;3.30;;;26.20;99.90;;;;;;5030774;28;20048;-50
2022/06/30 09:23:48;;;;;;;6.28;3.33;;;26.30;99.90;;;;;;5036510;28;20044;-45
2022/06/30 09:26:20;;;;;;;4.10;3.35;;;26.30;99.90;;;;;;5037643;28;20034;-44
2022/06/30 09:28:51;;;;;;;6.10;4.00;;;26.40;99.90;;;;;;5034016;28;20064;-44
2022/06/30 09:31:36;;;;;;;5.70;3.72;;;26.40;99.90;;;;;;5037601;28;20045;-43
2022/06/30 09:34:16;;;;;;;4.00;3.60;;;26.60;99.90;;;;;;5045810;28;20041;-47
2022/06/30 09:36:42;;;;;;;3.75;3.45;;;26.60;99.90;;;;;;5036940;28;20095;-43
2022/06/30 09:39:10;;;;;;;4.90;3.60;;;26.60;99.90;;;;;;5033532;28;20034;-45
2022/06/30 09:41:39;;;;;;;3.78;3.47;;;26.70;99.90;;;;;;5034342;28;20090;-44
2022/06/30 09:44:25;;;;;;;4.28;3.88;;;26.70;99.90;;;;;;5037883;28;20048;-43
2022/06/30 09:47:10;;;;;;;5.82;3.75;;;26.80;99.90;;;;;;5034898;28;20376;-43
2022/06/30 09:49:40;;;;;;;6.75;3.88;;;26.90;99.90;;;;;;5038239;28;20041;-44
2022/06/30 09:52:22;;;;;;;4.78;3.50;;;26.90;99.90;;;;;;5016584;28;20551;-43
2022/06/30 09:55:06;;;;;;;4.78;3.78;;;27.00;99.90;;;;;;5034078;28;20052;-44
2022/06/30 09:57:38;;;;;;;3.65;2.90;;;27.10;99.90;;;;;;5029797;28;20048;-48
2022/06/30 10:00:17;;;;;;;4.95;3.40;;;27.10;99.90;;;;;;5023291;28;20509;-44
2022/06/30 10:02:48;;;;;;;3.83;2.90;;;27.20;99.90;;;;;;5007054;28;20095;-46
2022/06/30 10:05:16;;;;;;;4.18;3.20;;;27.30;99.90;;;;;;5023836;28;20042;-47
2022/06/30 10:07:42;;;;;;;3.47;3.17;;;27.30;99.90;;;;;;5035761;28;20060;-45
2022/06/30 10:10:09;;;;;;;6.90;3.63;;;27.30;99.90;;;;;;5035305;28;20477;-48
2022/06/30 10:12:36;;;;;;;3.97;3.20;;;27.40;99.90;;;;;;5022295;28;20099;-48
2022/06/30 10:15:04;;;;;;;4.50;3.08;;;27.40;99.90;;;;;;5026397;28;20482;-47
2022/06/30 10:17:36;;;;;;;5.13;3.40;;;27.50;99.90;;;;;;5019154;28;20045;-46
2022/06/30 10:20:04;;;;;;;5.53;3.13;;;27.50;99.90;;;;;;5025975;28;20037;-45
2022/06/30 10:22:30;;;;;;;4.28;3.40;;;27.60;99.90;;;;;;5004067;28;20049;-47
2022/06/30 10:24:57;;;;;;;4.57;3.40;;;27.60;99.90;;;;;;5027008;28;20041;-46
2022/06/30 10:27:25;;;;;;;5.00;3.40;;;27.70;99.90;;;;;;5027888;28;20053;-46
2022/06/30 10:30:00;;;;;;;3.92;2.92;;;27.70;99.90;;;;;;5029247;28;20049;-47
2022/06/30 10:32:54;;;;;;;3.25;2.95;;;27.80;99.90;;;;;;5031073;28;20048;-44
2022/06/30 10:35:42;;;;;;;3.47;3.17;;;27.90;99.90;;;;;;5027019;28;20099;-44
2022/06/30 10:38:33;;;;;;;6.55;3.15;;;27.90;99.90;;;;;;5030860;28;20037;-45
2022/06/30 10:41:13;;;;;;;6.00;3.33;;;28.00;99.90;;;;;;5028588;28;20064;-47
2022/06/30 10:44:04;;;;;;;4.13;3.00;;;28.00;99.90;;;;;;5030465;28;20395;-45
2022/06/30 10:46:45;;;;;;;2.85;2.65;;;28.10;99.90;;;;;;5028713;28;20116;-44
2022/06/30 10:49:13;;;;;;;4.35;3.17;;;28.10;99.90;;;;;;5028256;28;20080;-45
2022/06/30 10:51:40;;;;;;;4.78;3.63;;;28.10;99.90;;;;;;5042868;28;20075;-46
2022/06/30 10:54:06;;;;;;;4.63;3.33;;;28.10;99.90;;;;;;5029521;28;20041;-46
2022/06/30 10:56:53;;;;;;;4.35;3.25;;;28.20;99.90;;;;;;5027459;28;20041;-45
2022/06/30 10:59:39;;;;;;;3.92;2.80;;;28.20;99.90;;;;;;5026396;28;20062;-46
2022/06/30 11:02:11;;;;;;;4.28;2.80;;;28.20;99.90;;;;;;5029967;28;20463;-48
2022/06/30 11:04:49;;;;;;;4.13;3.15;;;28.30;99.90;;;;;;5010315;28;20120;-47
2022/06/30 11:07:21;;;;;;;3.72;2.70;;;28.30;99.90;;;;;;5027472;28;20075;-46
2022/06/30 11:09:51;;;;;;;3.22;2.70;;;28.40;99.90;;;;;;5030642;28;20056;-47
2022/06/30 11:12:41;;;;;;;3.88;2.55;;;28.40;99.90;;;;;;5027088;28;20052;-47
2022/06/30 11:15:07;;;;;;;2.85;2.65;;;28.40;99.90;;;;;;5038590;28;20045;-47
2022/06/30 11:17:37;;;;;;;4.32;2.80;;;28.50;99.90;;;;;;5034769;28;20409;-44
2022/06/30 11:20:05;;;;;;;3.88;2.80;;;28.50;99.90;;;;;;5023199;28;20044;-46
2022/06/30 11:22:32;;;;;;;5.18;2.30;;;28.60;99.90;;;;;;5030970;28;20068;-44
2022/06/30 11:25:02;;;;;;;3.97;2.63;;;28.60;99.90;;;;;;5031328;28;20051;-44
2022/06/30 11:27:31;;;;;;;2.40;2.20;;;28.60;99.90;;;;;;5029026;28;20132;-47
2022/06/30 11:30:08;;;;;;;5.28;2.30;;;28.70;99.90;;;;;;5030750;28;20048;-46
2022/06/30 11:32:34;;;;;;;3.60;2.30;;;28.80;99.90;;;;;;5030351;28;20040;-44
2022/06/30 11:35:00;;;;;;;2.95;2.65;;;28.80;99.90;;;;;;5040726;28;20127;-44
2022/06/30 11:37:30;;;;;;;8.23;2.55;;;28.80;99.90;;;;;;5029170;28;20124;-43
2022/06/30 11:40:15;;;;;;;4.60;2.10;;;28.90;99.90;;;;;;5032400;28;20064;-46
2022/06/30 11:42:40;;;;;;;3.45;2.15;;;28.90;99.90;;;;;;5031437;28;20049;-45
2022/06/30 11:45:20;;;;;;;2.58;2.20;;;28.90;99.90;;;;;;5026138;28;20047;-45
2022/06/30 11:48:08;;;;;;;2.72;2.13;;;29.00;99.90;;;;;;5029741;28;20036;-44
2022/06/30 11:50:34;;;;;;;3.00;2.25;;;29.10;99.90;;;;;;5023641;28;20050;-44
2022/06/30 11:53:02;;;;;;;4.93;2.50;;;29.10;99.90;;;;;;5010803;28;20048;-49
2022/06/30 11:55:29;;;;;;;4.82;2.00;;;29.10;99.70;;;;;;5027790;28;20367;-44
2022/06/30 11:57:55;;;;;;;2.53;2.10;;;29.10;98.70;;;;;;5030045;28;20053;-45
2022/06/30 12:00:23;;;;;;;2.20;2.00;;;29.20;99.00;;;;;;5029334;28;20452;-43
2022/06/30 12:02:50;;;;;;;4.60;2.28;;;29.30;98.50;;;;;;5031337;28;20116;-45
2022/06/30 12:05:19;;;;;;;4.82;2.10;;;29.20;98.00;;;;;;5016297;28;20037;-44
2022/06/30 12:07:46;;;;;;;3.63;2.25;;;29.30;97.50;;;;;;5034372;28;20512;-44
2022/06/30 12:10:15;;;;;;;3.83;2.30;;;29.30;96.70;;;;;;5031160;28;20055;-44
2022/06/30 12:12:42;;;;;;;5.22;2.60;;;29.30;96.70;;;;;;5029977;28;20090;-43
2022/06/30 12:15:12;;;;;;;2.38;2.17;;;29.30;96.30;;;;;;5032375;28;20370;-47
2022/06/30 12:17:43;;;;;;;4.15;2.10;;;29.40;97.20;;;;;;5029799;28;20052;-47
2022/06/30 12:20:11;;;;;;;3.28;2.33;;;29.40;96.60;;;;;;5032165;28;20034;-45
2022/06/30 12:22:43;;;;;;;3.25;2.17;;;29.40;96.80;;;;;;5032696;28;20041;-44
2022/06/30 12:25:11;;;;;;;3.22;2.13;;;29.40;96.00;;;;;;5031473;28;20098;-44
2022/06/30 12:27:41;;;;;;;3.28;2.08;;;29.40;95.70;;;;;;5035513;28;20053;-43
2022/06/30 12:30:09;;;;;;;3.30;2.28;;;29.50;95.50;;;;;;5035961;28;20160;-43
2022/06/30 12:32:35;;;;;;;3.45;2.58;;;29.50;94.70;;;;;;5038984;28;20045;-43
2022/06/30 12:35:06;;;;;;;4.15;2.10;;;29.50;94.60;;;;;;5020648;28;20048;-46
2022/06/30 12:37:36;;;;;;;4.43;2.63;;;29.60;94.70;;;;;;5036129;28;20448;-45
2022/06/30 12:40:14;;;;;;;4.57;2.78;;;29.50;94.80;;;;;;5039211;28;20033;-45
2022/06/30 12:42:44;;;;;;;3.58;2.45;;;29.50;95.20;;;;;;5048154;28;20597;-46
2022/06/30 12:45:33;;;;;;;5.40;2.28;;;29.50;95.40;;;;;;5035281;28;20072;-45
2022/06/30 12:47:59;;;;;;;3.90;2.28;;;29.50;96.10;;;;;;5039195;28;20110;-44
2022/06/30 12:50:24;;;;;;;5.07;2.85;;;29.50;96.00;;;;;;5037064;28;20045;-46
2022/06/30 12:52:50;;;;;;;5.20;3.55;;;29.50;97.00;;;;;;5037527;28;20097;-44
2022/06/30 12:55:16;;;;;;;4.50;4.10;;;29.50;97.70;;;;;;5045344;28;20399;-45
2022/06/30 12:57:48;;;;;;;6.20;3.92;;;29.40;98.40;;;;;;5037889;28;20459;-44
2022/06/30 13:00:14;;;;;;;6.10;4.10;;;29.40;99.30;;;;;;5037351;28;20037;-44
2022/06/30 13:02:40;;;;;;;5.95;4.00;;;29.40;99.90;;;;;;5035960;28;20120;-44